createdAt,value
2018-01-23T00:00:25.581Z,2.49
2018-01-23T00:01:06.217Z,2.51
2018-01-23T00:01:46.774Z,2.51
2018-01-23T00:02:27.328Z,2.49
2018-01-23T00:03:07.889Z,2.51
2018-01-23T00:03:48.449Z,2.47
2018-01-23T00:04:29.024Z,2.5
2018-01-23T00:05:09.590Z,2.43
2018-01-23T00:05:50.151Z,2.5
2018-01-23T00:06:30.748Z,2.39
2018-01-23T00:07:11.326Z,2.42
2018-01-23T00:07:51.926Z,2.49
2018-01-23T00:08:32.498Z,2.44
2018-01-23T00:09:13.066Z,2.56
2018-01-23T00:09:53.628Z,2.56
2018-01-23T00:10:34.228Z,2.6
2018-01-23T00:11:14.828Z,2.54
2018-01-23T00:11:55.400Z,2.56
2018-01-23T00:12:35.957Z,2.57
2018-01-23T00:13:16.528Z,2.54
2018-01-23T00:13:57.121Z,2.57
2018-01-23T00:14:37.704Z,2.49
2018-01-23T00:15:18.264Z,2.56
2018-01-23T00:15:58.839Z,2.61
2018-01-23T00:16:39.437Z,2.53
2018-01-23T00:17:20.000Z,2.57
2018-01-23T00:18:00.572Z,2.53
2018-01-23T00:18:41.136Z,2.57
2018-01-23T00:19:21.715Z,2.61
2018-01-23T00:20:02.279Z,2.6
2018-01-23T00:20:42.844Z,2.54
2018-01-23T00:21:23.420Z,2.56
2018-01-23T00:22:03.984Z,2.54
2018-01-23T00:22:44.561Z,2.51
2018-01-23T00:23:25.118Z,2.62
2018-01-23T00:24:05.687Z,2.57
2018-01-23T00:24:46.256Z,2.42
2018-01-23T00:25:26.920Z,2.54
2018-01-23T00:26:07.473Z,2.49
2018-01-23T00:26:48.060Z,2.57
2018-01-23T00:27:28.618Z,2.61
2018-01-23T00:28:09.182Z,2.56
2018-01-23T00:28:49.749Z,2.57
2018-01-23T00:29:30.312Z,2.61
2018-01-23T00:30:10.888Z,2.61
2018-01-23T00:30:51.464Z,2.64
2018-01-23T00:31:32.025Z,2.61
2018-01-23T00:32:12.590Z,2.64
2018-01-23T00:32:53.151Z,2.64
2018-01-23T00:33:33.709Z,2.68
2018-01-23T00:34:14.269Z,2.68
2018-01-23T00:34:54.844Z,2.71
2018-01-23T00:35:35.428Z,2.65
2018-01-23T00:36:15.993Z,2.61
2018-01-23T00:36:56.561Z,2.71
2018-01-23T00:37:37.125Z,2.67
2018-01-23T00:38:17.685Z,2.74
2018-01-23T00:38:58.264Z,2.79
2018-01-23T00:39:38.824Z,2.71
2018-01-23T00:40:19.383Z,2.87
2018-01-23T00:40:59.963Z,2.79
2018-01-23T00:41:40.511Z,2.77
2018-01-23T00:42:21.065Z,2.82
2018-01-23T00:43:01.635Z,2.8
2018-01-23T00:43:42.199Z,2.82
2018-01-23T00:44:22.761Z,2.77
2018-01-23T00:45:03.377Z,2.8
2018-01-23T00:45:43.872Z,2.85
2018-01-23T00:46:24.425Z,2.89
2018-01-23T00:47:04.978Z,2.9
2018-01-23T00:47:45.555Z,2.87
2018-01-23T00:48:26.115Z,2.92
2018-01-23T00:49:06.678Z,2.87
2018-01-23T00:49:47.248Z,2.9
2018-01-23T00:50:27.804Z,2.86
2018-01-23T00:51:08.369Z,2.83
2018-01-23T00:51:48.921Z,2.86
2018-01-23T00:52:29.482Z,2.98
2018-01-23T00:53:10.085Z,2.89
2018-01-23T00:53:50.654Z,2.87
2018-01-23T00:54:31.224Z,2.89
2018-01-23T00:55:11.788Z,2.85
2018-01-23T00:55:52.385Z,2.89
2018-01-23T00:56:32.922Z,2.83
2018-01-23T00:57:13.474Z,2.92
2018-01-23T00:57:54.035Z,2.83
2018-01-23T00:58:34.592Z,2.85
2018-01-23T00:59:15.155Z,2.83
2018-01-23T00:59:55.741Z,2.77
2018-01-23T01:00:36.294Z,2.77
2018-01-23T01:01:16.866Z,2.71
2018-01-23T01:01:57.438Z,2.69
2018-01-23T01:02:38.014Z,2.65
2018-01-23T01:03:18.575Z,2.69
2018-01-23T01:03:59.150Z,2.71
2018-01-23T01:04:39.720Z,2.68
2018-01-23T01:05:20.292Z,2.68
2018-01-23T01:06:00.863Z,2.69
2018-01-23T01:06:41.433Z,2.74
2018-01-23T01:07:22.014Z,2.74
2018-01-23T01:08:02.580Z,2.72
2018-01-23T01:08:43.130Z,2.74
2018-01-23T01:09:23.691Z,2.68
2018-01-23T01:10:04.251Z,2.69
2018-01-23T01:10:44.813Z,2.62
2018-01-23T01:11:25.369Z,2.62
2018-01-23T01:12:05.937Z,2.6
2018-01-23T01:12:46.552Z,2.57
2018-01-23T01:13:27.085Z,2.62
2018-01-23T01:14:07.674Z,2.61
2018-01-23T01:14:48.244Z,2.56
2018-01-23T01:15:28.804Z,2.65
2018-01-23T01:16:09.364Z,2.62
2018-01-23T01:16:49.911Z,2.54
2018-01-23T01:17:30.468Z,2.57
2018-01-23T01:18:11.040Z,2.6
2018-01-23T01:18:51.612Z,2.6
2018-01-23T01:19:32.178Z,2.61
2018-01-23T01:20:12.752Z,2.49
2018-01-23T01:20:53.318Z,2.57
2018-01-23T01:21:33.901Z,2.57
2018-01-23T01:22:14.469Z,2.5
2018-01-23T01:22:55.029Z,2.61
2018-01-23T01:23:35.591Z,2.57
2018-01-23T01:24:16.154Z,2.6
2018-01-23T01:24:56.761Z,2.62
2018-01-23T01:25:37.345Z,2.57
2018-01-23T01:26:17.900Z,2.56
2018-01-23T01:26:58.462Z,2.61
2018-01-23T01:27:39.021Z,2.5
2018-01-23T01:28:19.579Z,2.61
2018-01-23T01:29:00.135Z,2.57
2018-01-23T01:29:40.682Z,2.62
2018-01-23T01:30:21.324Z,2.56
2018-01-23T01:31:01.916Z,2.6
2018-01-23T01:31:42.483Z,2.61
2018-01-23T01:32:23.041Z,2.54
2018-01-23T01:33:03.605Z,2.5
2018-01-23T01:33:44.164Z,2.6
2018-01-23T01:34:24.730Z,2.6
2018-01-23T01:35:05.321Z,2.56
2018-01-23T01:35:45.864Z,2.6
2018-01-23T01:36:26.435Z,2.62
2018-01-23T01:37:06.987Z,2.65
2018-01-23T01:37:47.539Z,2.65
2018-01-23T01:38:28.102Z,2.6
2018-01-23T01:39:08.652Z,2.61
2018-01-23T01:39:49.213Z,2.67
2018-01-23T01:40:29.780Z,2.64
2018-01-23T01:41:10.356Z,2.69
2018-01-23T01:41:50.922Z,2.72
2018-01-23T01:42:31.476Z,2.71
2018-01-23T01:43:12.044Z,2.72
2018-01-23T01:43:52.623Z,2.72
2018-01-23T01:44:33.190Z,2.74
2018-01-23T01:45:13.739Z,2.74
2018-01-23T01:45:54.303Z,2.74
2018-01-23T01:46:34.868Z,2.86
2018-01-23T01:47:15.429Z,2.89
2018-01-23T01:47:55.986Z,2.79
2018-01-23T01:48:36.568Z,2.74
2018-01-23T01:49:17.144Z,2.74
2018-01-23T01:49:57.749Z,2.72
2018-01-23T01:50:38.310Z,2.77
2018-01-23T01:51:18.872Z,2.75
2018-01-23T01:51:59.427Z,2.74
2018-01-23T01:52:39.987Z,2.9
2018-01-23T01:53:20.558Z,2.9
2018-01-23T01:54:01.128Z,2.85
2018-01-23T01:54:41.683Z,2.74
2018-01-23T01:55:22.252Z,2.72
2018-01-23T01:56:02.816Z,2.79
2018-01-23T01:56:43.363Z,2.82
2018-01-23T01:57:23.923Z,2.86
2018-01-23T01:58:04.483Z,2.83
2018-01-23T01:58:45.043Z,2.92
2018-01-23T01:59:25.605Z,2.89
2018-01-23T02:00:06.212Z,2.9
2018-01-23T02:00:46.785Z,2.9
2018-01-23T02:01:27.345Z,2.85
2018-01-23T02:02:07.907Z,2.85
2018-01-23T02:02:48.458Z,2.89
2018-01-23T02:03:29.030Z,2.9
2018-01-23T02:04:09.584Z,2.89
2018-01-23T02:04:50.164Z,2.87
2018-01-23T02:05:30.731Z,2.9
2018-01-23T02:06:11.297Z,2.89
2018-01-23T02:06:51.867Z,2.86
2018-01-23T02:07:32.436Z,2.85
2018-01-23T02:08:13.007Z,2.87
2018-01-23T02:08:53.585Z,2.87
2018-01-23T02:09:34.149Z,2.89
2018-01-23T02:10:14.720Z,2.95
2018-01-23T02:10:55.294Z,2.92
2018-01-23T02:11:35.858Z,2.98
2018-01-23T02:12:16.410Z,2.85
2018-01-23T02:12:56.964Z,2.89
2018-01-23T02:13:37.511Z,2.95
2018-01-23T02:14:18.066Z,2.92
2018-01-23T02:14:58.637Z,2.85
2018-01-23T02:15:39.198Z,2.87
2018-01-23T02:16:19.752Z,2.89
2018-01-23T02:17:00.332Z,2.89
2018-01-23T02:17:40.884Z,2.86
2018-01-23T02:18:21.451Z,2.92
2018-01-23T02:19:02.018Z,2.86
2018-01-23T02:19:42.591Z,2.85
2018-01-23T02:20:23.166Z,2.93
2018-01-23T02:21:03.728Z,2.97
2018-01-23T02:21:44.286Z,2.97
2018-01-23T02:22:24.847Z,2.97
2018-01-23T02:23:05.410Z,3.01
2018-01-23T02:23:45.996Z,3
2018-01-23T02:24:26.549Z,3.04
2018-01-23T02:25:07.166Z,2.97
2018-01-23T02:25:47.726Z,2.93
2018-01-23T02:26:28.290Z,3.04
2018-01-23T02:27:08.852Z,3.07
2018-01-23T02:27:49.414Z,3.03
2018-01-23T02:28:29.976Z,3.05
2018-01-23T02:29:10.542Z,3
2018-01-23T02:29:51.122Z,3.03
2018-01-23T02:30:31.697Z,3.11
2018-01-23T02:31:12.267Z,3.08
2018-01-23T02:31:52.845Z,3.04
2018-01-23T02:32:33.409Z,3.05
2018-01-23T02:33:13.970Z,3.1
2018-01-23T02:33:54.530Z,3.07
2018-01-23T02:34:35.088Z,3.01
2018-01-23T02:35:15.651Z,3.05
2018-01-23T02:35:56.224Z,3.07
2018-01-23T02:36:36.807Z,3.01
2018-01-23T02:37:17.386Z,3.05
2018-01-23T02:37:57.959Z,3.07
2018-01-23T02:38:38.519Z,3.11
2018-01-23T02:39:19.074Z,3
2018-01-23T02:39:59.648Z,3
2018-01-23T02:40:40.211Z,3.01
2018-01-23T02:41:20.762Z,3.05
2018-01-23T02:42:01.324Z,3.04
2018-01-23T02:42:41.889Z,3.07
2018-01-23T02:43:22.459Z,3.13
2018-01-23T02:44:03.019Z,3.01
2018-01-23T02:44:43.580Z,3.05
2018-01-23T02:45:24.148Z,3.07
2018-01-23T02:46:04.696Z,3.08
2018-01-23T02:46:45.253Z,3.05
2018-01-23T02:47:25.862Z,3.07
2018-01-23T02:48:06.417Z,3.1
2018-01-23T02:48:46.979Z,3.07
2018-01-23T02:49:27.547Z,3.07
2018-01-23T02:50:08.108Z,3.13
2018-01-23T02:50:48.662Z,3.08
2018-01-23T02:51:29.295Z,3.1
2018-01-23T02:52:09.833Z,3.08
2018-01-23T02:52:50.389Z,3.1
2018-01-23T02:53:30.939Z,3.05
2018-01-23T02:54:11.501Z,3.08
2018-01-23T02:54:52.075Z,3.07
2018-01-23T02:55:32.631Z,3.07
2018-01-23T02:56:13.185Z,3.1
2018-01-23T02:56:53.745Z,3.08
2018-01-23T02:57:34.303Z,3.08
2018-01-23T02:58:14.883Z,3.05
2018-01-23T02:58:55.444Z,3.07
2018-01-23T02:59:36.016Z,3.08
2018-01-23T03:00:16.559Z,3.08
2018-01-23T03:00:57.201Z,3.11
2018-01-23T03:01:37.758Z,3.14
2018-01-23T03:02:18.304Z,3.13
2018-01-23T03:02:58.865Z,3.05
2018-01-23T03:03:39.424Z,3.07
2018-01-23T03:04:20.005Z,3.07
2018-01-23T03:05:00.561Z,3.16
2018-01-23T03:05:41.172Z,3.14
2018-01-23T03:06:21.702Z,3.18
2018-01-23T03:07:02.264Z,3.16
2018-01-23T03:07:42.807Z,3.08
2018-01-23T03:08:23.360Z,3.16
2018-01-23T03:09:03.920Z,3.13
2018-01-23T03:09:44.470Z,3.18
2018-01-23T03:10:25.025Z,3.14
2018-01-23T03:11:05.588Z,3.18
2018-01-23T03:11:46.169Z,3.16
2018-01-23T03:12:26.732Z,3.19
2018-01-23T03:13:07.312Z,3.11
2018-01-23T03:13:47.855Z,3.16
2018-01-23T03:14:28.468Z,3.22
2018-01-23T03:15:08.977Z,3.14
2018-01-23T03:15:49.545Z,3.19
2018-01-23T03:16:30.104Z,3.16
2018-01-23T03:17:10.677Z,3.13
2018-01-23T03:17:51.240Z,3.18
2018-01-23T03:18:31.823Z,3.18
2018-01-23T03:19:12.378Z,3.21
2018-01-23T03:19:52.929Z,3.14
2018-01-23T03:20:33.492Z,3.21
2018-01-23T03:21:14.043Z,3.13
2018-01-23T03:21:54.602Z,3.11
2018-01-23T03:22:35.185Z,3.21
2018-01-23T03:23:15.751Z,3.14
2018-01-23T03:23:56.319Z,3.14
2018-01-23T03:24:36.926Z,3.25
2018-01-23T03:25:17.491Z,3.11
2018-01-23T03:25:58.057Z,3.16
2018-01-23T03:26:38.613Z,3.18
2018-01-23T03:27:19.181Z,3.21
2018-01-23T03:27:59.736Z,3.19
2018-01-23T03:28:40.298Z,3.14
2018-01-23T03:29:20.859Z,3.19
2018-01-23T03:30:01.430Z,3.07
2018-01-23T03:30:42.001Z,3.16
2018-01-23T03:31:22.559Z,3.13
2018-01-23T03:32:03.135Z,3.19
2018-01-23T03:32:43.706Z,3.13
2018-01-23T03:33:24.271Z,3.19
2018-01-23T03:34:04.843Z,3.18
2018-01-23T03:34:45.418Z,3.18
2018-01-23T03:35:25.971Z,3.21
2018-01-23T03:36:06.527Z,3.18
2018-01-23T03:36:47.122Z,3.22
2018-01-23T03:37:27.715Z,3.19
2018-01-23T03:38:08.289Z,3.08
2018-01-23T03:38:48.846Z,3.18
2018-01-23T03:39:29.418Z,3.23
2018-01-23T03:40:09.980Z,3.25
2018-01-23T03:40:50.559Z,3.18
2018-01-23T03:41:31.131Z,3.19
2018-01-23T03:42:11.703Z,3.21
2018-01-23T03:42:52.278Z,3.23
2018-01-23T03:43:32.848Z,3.21
2018-01-23T03:44:13.399Z,3.21
2018-01-23T03:44:53.966Z,3.16
2018-01-23T03:45:34.534Z,3.19
2018-01-23T03:46:15.092Z,3.19
2018-01-23T03:46:55.677Z,3.08
2018-01-23T03:47:36.226Z,3.16
2018-01-23T03:48:16.788Z,3.16
2018-01-23T03:48:57.375Z,3.16
2018-01-23T03:49:37.946Z,3.14
2018-01-23T03:50:18.516Z,3.18
2018-01-23T03:50:59.074Z,3.16
2018-01-23T03:51:39.644Z,3.13
2018-01-23T03:52:20.221Z,3.14
2018-01-23T03:53:00.786Z,3.19
2018-01-23T03:53:41.353Z,3.21
2018-01-23T03:54:21.969Z,3.19
2018-01-23T03:55:02.607Z,3.14
2018-01-23T03:55:43.129Z,3.19
2018-01-23T03:56:23.700Z,3.21
2018-01-23T03:57:04.267Z,3.23
2018-01-23T03:57:44.821Z,3.21
2018-01-23T03:58:25.367Z,3.18
2018-01-23T03:59:05.932Z,3.22
2018-01-23T03:59:46.488Z,3.14
2018-01-23T04:00:27.069Z,3.22
2018-01-23T04:01:07.641Z,3.23
2018-01-23T04:01:48.207Z,3.19
2018-01-23T04:02:28.783Z,3.23
2018-01-23T04:03:09.335Z,3.25
2018-01-23T04:03:49.905Z,3.1
2018-01-23T04:04:30.463Z,3.21
2018-01-23T04:05:11.040Z,3.18
2018-01-23T04:05:51.604Z,3.16
2018-01-23T04:06:32.176Z,3.16
2018-01-23T04:07:12.732Z,3.13
2018-01-23T04:07:53.294Z,3.28
2018-01-23T04:08:33.878Z,3.21
2018-01-23T04:09:14.435Z,3.07
2018-01-23T04:09:55.000Z,3.19
2018-01-23T04:10:35.584Z,3.26
2018-01-23T04:11:16.171Z,3.08
2018-01-23T04:11:56.737Z,3.22
2018-01-23T04:12:37.305Z,3.19
2018-01-23T04:13:17.871Z,3.16
2018-01-23T04:13:58.442Z,3.19
2018-01-23T04:14:39.029Z,3.19
2018-01-23T04:15:19.601Z,3.22
2018-01-23T04:16:00.160Z,3.21
2018-01-23T04:16:40.727Z,3.22
2018-01-23T04:17:21.297Z,3.18
2018-01-23T04:18:01.854Z,3.19
2018-01-23T04:18:42.411Z,3.23
2018-01-23T04:19:22.967Z,3.18
2018-01-23T04:20:03.525Z,3.14
2018-01-23T04:20:44.091Z,3.08
2018-01-23T04:21:24.651Z,3.19
2018-01-23T04:22:05.213Z,3.18
2018-01-23T04:22:45.770Z,3.23
2018-01-23T04:23:26.335Z,3.19
2018-01-23T04:24:06.915Z,3.18
2018-01-23T04:24:47.474Z,3.23
2018-01-23T04:25:28.031Z,3.14
2018-01-23T04:26:08.588Z,3.22
2018-01-23T04:26:49.159Z,3.22
2018-01-23T04:27:29.715Z,3.21
2018-01-23T04:28:10.279Z,3.19
2018-01-23T04:28:50.850Z,3.28
2018-01-23T04:29:31.428Z,3.25
2018-01-23T04:30:11.973Z,3.25
2018-01-23T04:30:52.539Z,3.26
2018-01-23T04:31:33.098Z,3.32
2018-01-23T04:32:13.667Z,3.26
2018-01-23T04:32:54.241Z,3.22
2018-01-23T04:33:34.822Z,3.26
2018-01-23T04:34:15.376Z,3.28
2018-01-23T04:34:55.942Z,3.28
2018-01-23T04:35:36.491Z,3.28
2018-01-23T04:36:17.068Z,3.29
2018-01-23T04:36:57.625Z,3.23
2018-01-23T04:37:38.188Z,3.22
2018-01-23T04:38:18.743Z,3.23
2018-01-23T04:38:59.296Z,3.26
2018-01-23T04:39:39.844Z,3.26
2018-01-23T04:40:20.406Z,3.29
2018-01-23T04:41:00.975Z,3.25
2018-01-23T04:41:41.542Z,3.26
2018-01-23T04:42:22.128Z,3.26
2018-01-23T04:43:02.703Z,3.28
2018-01-23T04:43:43.248Z,3.31
2018-01-23T04:44:23.821Z,3.31
2018-01-23T04:45:04.389Z,3.23
2018-01-23T04:45:44.960Z,3.31
2018-01-23T04:46:25.522Z,3.23
2018-01-23T04:47:06.081Z,3.26
2018-01-23T04:47:46.677Z,3.36
2018-01-23T04:48:27.231Z,3.36
2018-01-23T04:49:07.791Z,3.34
2018-01-23T04:49:48.359Z,3.34
2018-01-23T04:50:28.917Z,3.32
2018-01-23T04:51:09.482Z,3.34
2018-01-23T04:51:50.055Z,3.26
2018-01-23T04:52:30.617Z,3.31
2018-01-23T04:53:11.185Z,3.23
2018-01-23T04:53:51.777Z,3.36
2018-01-23T04:54:32.340Z,3.37
2018-01-23T04:55:12.903Z,3.37
2018-01-23T04:55:53.463Z,3.32
2018-01-23T04:56:34.025Z,3.28
2018-01-23T04:57:14.603Z,3.29
2018-01-23T04:57:55.172Z,3.31
2018-01-23T04:58:35.765Z,3.26
2018-01-23T04:59:16.308Z,3.31
2018-01-23T04:59:56.881Z,3.28
2018-01-23T05:00:37.442Z,3.26
2018-01-23T05:01:17.998Z,3.23
2018-01-23T05:01:58.568Z,3.28
2018-01-23T05:02:39.137Z,3.26
2018-01-23T05:03:19.697Z,3.28
2018-01-23T05:04:00.269Z,3.28
2018-01-23T05:04:40.833Z,3.25
2018-01-23T05:05:21.466Z,3.23
2018-01-23T05:06:02.036Z,3.37
2018-01-23T05:06:42.599Z,3.26
2018-01-23T05:07:23.173Z,3.31
2018-01-23T05:08:03.746Z,3.34
2018-01-23T05:08:44.305Z,3.4
2018-01-23T05:09:24.868Z,3.32
2018-01-23T05:10:05.442Z,3.36
2018-01-23T05:10:46.023Z,3.37
2018-01-23T05:11:26.585Z,3.29
2018-01-23T05:12:07.149Z,3.29
2018-01-23T05:12:47.708Z,3.29
2018-01-23T05:13:28.294Z,3.4
2018-01-23T05:14:08.856Z,3.32
2018-01-23T05:14:49.405Z,3.32
2018-01-23T05:15:29.983Z,3.28
2018-01-23T05:16:10.575Z,3.34
2018-01-23T05:16:51.159Z,3.29
2018-01-23T05:17:31.712Z,3.37
2018-01-23T05:18:12.311Z,3.31
2018-01-23T05:18:52.861Z,3.44
2018-01-23T05:19:33.416Z,3.36
2018-01-23T05:20:13.976Z,3.42
2018-01-23T05:20:54.545Z,3.32
2018-01-23T05:21:35.102Z,3.4
2018-01-23T05:22:15.679Z,3.4
2018-01-23T05:22:56.238Z,3.42
2018-01-23T05:23:36.817Z,3.42
2018-01-23T05:24:17.394Z,3.37
2018-01-23T05:24:57.948Z,3.41
2018-01-23T05:25:38.972Z,3.42
2018-01-23T05:26:19.526Z,3.44
2018-01-23T05:27:00.091Z,3.42
2018-01-23T05:27:40.641Z,3.48
2018-01-23T05:28:21.199Z,3.47
2018-01-23T05:29:01.770Z,3.59
2018-01-23T05:29:42.340Z,3.8
2018-01-23T05:30:22.904Z,4.05
2018-01-23T05:31:03.457Z,4.22
2018-01-23T05:31:44.010Z,4.26
2018-01-23T05:32:24.575Z,4.28
2018-01-23T05:33:05.156Z,4.2
2018-01-23T05:33:45.740Z,4.26
2018-01-23T05:34:26.294Z,4.19
2018-01-23T05:35:06.857Z,4.26
2018-01-23T05:35:47.426Z,4.23
2018-01-23T05:36:27.978Z,4.05
2018-01-23T05:37:08.563Z,4.08
2018-01-23T05:37:49.139Z,4.02
2018-01-23T05:38:29.691Z,4.08
2018-01-23T05:39:10.245Z,3.96
2018-01-23T05:39:50.825Z,4.01
2018-01-23T05:40:31.392Z,3.95
2018-01-23T05:41:11.962Z,3.95
2018-01-23T05:41:52.523Z,3.91
2018-01-23T05:42:33.085Z,3.94
2018-01-23T05:43:13.651Z,3.83
2018-01-23T05:43:54.222Z,3.77
2018-01-23T05:44:34.779Z,3.81
2018-01-23T05:45:18.329Z,3.81
2018-01-23T05:45:58.891Z,3.69
2018-01-23T05:46:39.461Z,3.78
2018-01-23T05:47:20.037Z,3.81
2018-01-23T05:48:00.616Z,3.8
2018-01-23T05:48:41.183Z,3.8
2018-01-23T05:49:21.749Z,3.8
2018-01-23T05:50:02.418Z,3.8
2018-01-23T05:50:42.975Z,3.76
2018-01-23T05:51:23.537Z,3.77
2018-01-23T05:52:04.103Z,3.76
2018-01-23T05:52:44.669Z,3.7
2018-01-23T05:53:25.240Z,3.73
2018-01-23T05:54:05.807Z,3.78
2018-01-23T05:54:46.370Z,3.74
2018-01-23T05:55:26.933Z,3.78
2018-01-23T05:56:07.488Z,3.77
2018-01-23T05:56:48.056Z,3.68
2018-01-23T05:57:28.614Z,3.69
2018-01-23T05:58:09.171Z,3.69
2018-01-23T05:58:49.734Z,3.7
2018-01-23T05:59:30.317Z,3.74
2018-01-23T06:00:10.859Z,3.7
2018-01-23T06:00:51.409Z,3.65
2018-01-23T06:01:31.965Z,3.66
2018-01-23T06:02:12.537Z,3.63
2018-01-23T06:02:53.105Z,3.66
2018-01-23T06:03:33.674Z,3.62
2018-01-23T06:04:14.246Z,3.59
2018-01-23T06:04:54.802Z,3.6
2018-01-23T06:05:35.365Z,3.63
2018-01-23T06:06:15.921Z,3.59
2018-01-23T06:06:56.492Z,3.65
2018-01-23T06:07:37.093Z,3.59
2018-01-23T06:08:17.649Z,3.62
2018-01-23T06:08:58.207Z,3.58
2018-01-23T06:09:38.776Z,3.59
2018-01-23T06:10:19.329Z,3.58
2018-01-23T06:10:59.887Z,3.53
2018-01-23T06:11:40.454Z,3.62
2018-01-23T06:12:21.031Z,3.63
2018-01-23T06:13:01.595Z,3.55
2018-01-23T06:13:42.177Z,3.53
2018-01-23T06:14:22.735Z,3.53
2018-01-23T06:15:03.313Z,3.5
2018-01-23T06:15:43.854Z,3.53
2018-01-23T06:16:24.412Z,3.53
2018-01-23T06:17:04.973Z,3.5
2018-01-23T06:18:42.301Z,3.5
2018-01-23T06:19:22.876Z,3.45
2018-01-23T06:20:03.454Z,3.41
2018-01-23T06:20:44.010Z,3.48
2018-01-23T06:21:24.567Z,3.45
2018-01-23T06:22:05.122Z,3.53
2018-01-23T06:22:45.682Z,3.44
2018-01-23T06:23:26.240Z,3.55
2018-01-23T06:24:06.798Z,3.5
2018-01-23T06:24:47.358Z,3.51
2018-01-23T06:25:27.933Z,3.51
2018-01-23T06:26:08.494Z,3.48
2018-01-23T06:26:49.083Z,3.66
2018-01-23T06:27:29.640Z,3.86
2018-01-23T06:28:10.215Z,4.2
2018-01-23T06:28:50.773Z,4.49
2018-01-23T06:29:31.321Z,4.8
2018-01-23T06:30:11.885Z,5.07
2018-01-23T06:30:52.478Z,5.33
2018-01-23T06:31:33.027Z,5.51
2018-01-23T06:32:13.587Z,5.79
2018-01-23T06:32:54.139Z,5.91
2018-01-23T06:33:34.689Z,5.98
2018-01-23T06:34:15.256Z,6.14
2018-01-23T06:34:55.812Z,6.33
2018-01-23T06:35:36.369Z,6.36
2018-01-23T06:36:16.951Z,6.48
2018-01-23T06:36:57.518Z,6.57
2018-01-23T06:37:38.124Z,6.7
2018-01-23T06:38:18.705Z,6.88
2018-01-23T06:38:59.272Z,6.89
2018-01-23T06:39:39.838Z,7.06
2018-01-23T06:40:20.419Z,7.06
2018-01-23T06:41:00.994Z,7.17
2018-01-23T06:41:41.555Z,7.18
2018-01-23T06:42:22.141Z,7.25
2018-01-23T06:43:02.719Z,7.21
2018-01-23T06:43:43.273Z,7.31
2018-01-23T06:44:23.853Z,7.32
2018-01-23T06:45:04.409Z,7.43
2018-01-23T06:45:44.967Z,7.54
2018-01-23T06:46:25.565Z,7.61
2018-01-23T06:47:06.167Z,7.75
2018-01-23T06:47:46.743Z,7.76
2018-01-23T06:48:27.311Z,7.91
2018-01-23T06:49:07.886Z,7.85
2018-01-23T06:49:48.437Z,7.79
2018-01-23T06:50:29.028Z,7.66
2018-01-23T06:51:09.596Z,7.43
2018-01-23T06:51:50.169Z,7.28
2018-01-23T06:52:30.729Z,7.13
2018-01-23T06:53:11.313Z,6.92
2018-01-23T06:53:51.862Z,6.74
2018-01-23T06:54:32.419Z,6.6
2018-01-23T06:55:12.979Z,6.44
2018-01-23T06:55:53.524Z,6.24
2018-01-23T06:56:34.100Z,6.11
2018-01-23T06:57:14.675Z,6.01
2018-01-23T06:57:55.238Z,5.9
2018-01-23T06:58:35.849Z,5.73
2018-01-23T06:59:16.396Z,5.65
2018-01-23T06:59:56.971Z,5.64
2018-01-23T07:00:37.531Z,5.41
2018-01-23T07:01:18.120Z,5.48
2018-01-23T07:01:58.669Z,5.43
2018-01-23T07:02:39.235Z,5.32
2018-01-23T07:03:19.809Z,5.3
2018-01-23T07:04:00.372Z,5.23
2018-01-23T07:04:40.947Z,5.17
2018-01-23T07:05:21.509Z,5.12
2018-01-23T07:06:02.077Z,5.04
2018-01-23T07:06:42.669Z,4.99
2018-01-23T07:07:23.252Z,4.94
2018-01-23T07:08:03.807Z,4.93
2018-01-23T07:08:44.367Z,4.92
2018-01-23T07:09:24.933Z,4.78
2018-01-23T07:10:05.534Z,4.73
2018-01-23T07:10:46.098Z,4.73
2018-01-23T07:11:26.723Z,4.73
2018-01-23T07:12:10.398Z,4.68
2018-01-23T07:12:50.974Z,4.63
2018-01-23T07:13:31.549Z,4.63
2018-01-23T07:14:12.111Z,4.63
2018-01-23T07:14:52.679Z,4.7
2018-01-23T07:15:33.253Z,4.53
2018-01-23T07:16:13.822Z,4.53
2018-01-23T07:16:54.373Z,4.53
2018-01-23T07:17:35.285Z,4.55
2018-01-23T07:18:15.872Z,4.53
2018-01-23T07:18:56.448Z,4.45
2018-01-23T07:19:37.025Z,4.53
2018-01-23T07:20:17.599Z,4.4
2018-01-23T07:20:58.161Z,4.41
2018-01-23T07:21:38.718Z,4.48
2018-01-23T07:22:19.309Z,4.44
2018-01-23T07:22:59.865Z,4.38
2018-01-23T07:23:40.700Z,4.31
2018-01-23T07:24:21.301Z,4.35
2018-01-23T07:25:01.830Z,4.24
2018-01-23T07:25:42.406Z,4.28
2018-01-23T07:26:23.022Z,4.31
2018-01-23T07:28:12.909Z,4.22
2018-01-23T07:28:53.474Z,4.22
2018-01-23T07:29:34.044Z,4.28
2018-01-23T07:30:15.368Z,4.3
2018-01-23T07:30:55.925Z,4.23
2018-01-23T07:31:36.496Z,4.24
2018-01-23T07:32:17.110Z,4.17
2018-01-23T07:32:57.682Z,4.3
2018-01-23T07:33:38.230Z,4.22
2018-01-23T07:34:18.788Z,4.19
2018-01-23T07:34:59.367Z,4.19
2018-01-23T07:35:39.935Z,4.22
2018-01-23T07:36:20.511Z,4.23
2018-01-23T07:37:01.066Z,4.1
2018-01-23T07:37:41.641Z,4.16
2018-01-23T07:38:22.199Z,4.08
2018-01-23T07:39:02.783Z,4.06
2018-01-23T07:39:43.350Z,4.12
2018-01-23T07:40:23.906Z,4.06
2018-01-23T07:41:04.466Z,4.05
2018-01-23T07:41:45.036Z,4.02
2018-01-23T07:42:25.606Z,4.04
2018-01-23T07:43:06.181Z,4.02
2018-01-23T07:43:46.747Z,3.96
2018-01-23T07:44:27.389Z,3.94
2018-01-23T07:45:07.916Z,3.91
2018-01-23T07:45:48.504Z,3.86
2018-01-23T07:46:29.063Z,3.94
2018-01-23T07:47:09.623Z,3.92
2018-01-23T07:47:50.250Z,3.86
2018-01-23T07:48:30.811Z,3.86
2018-01-23T07:49:11.398Z,3.86
2018-01-23T07:49:51.980Z,3.92
2018-01-23T07:50:32.542Z,3.86
2018-01-23T07:51:13.108Z,3.86
2018-01-23T07:51:53.693Z,3.91
2018-01-23T07:52:34.247Z,3.84
2018-01-23T07:53:14.834Z,3.87
2018-01-23T07:53:55.394Z,3.86
2018-01-23T07:54:35.943Z,3.91
2018-01-23T07:55:16.503Z,3.86
2018-01-23T07:55:57.057Z,3.77
2018-01-23T07:56:37.616Z,3.84
2018-01-23T07:57:18.163Z,3.78
2018-01-23T07:57:58.723Z,3.87
2018-01-23T07:58:39.274Z,3.87
2018-01-23T07:59:19.829Z,3.84
2018-01-23T08:00:00.386Z,3.78
2018-01-23T08:00:40.945Z,3.77
2018-01-23T08:01:21.506Z,3.78
2018-01-23T08:02:02.122Z,3.81
2018-01-23T08:02:42.699Z,3.78
2018-01-23T08:03:23.288Z,3.76
2018-01-23T08:04:03.855Z,3.76
2018-01-23T08:04:44.430Z,3.78
2018-01-23T08:05:24.998Z,3.83
2018-01-23T08:06:05.587Z,3.77
2018-01-23T08:06:46.163Z,3.86
2018-01-23T08:07:26.717Z,3.86
2018-01-23T08:08:07.275Z,3.81
2018-01-23T08:08:47.853Z,3.88
2018-01-23T08:09:28.421Z,3.87
2018-01-23T08:10:08.981Z,3.91
2018-01-23T08:10:49.546Z,3.84
2018-01-23T08:11:30.101Z,3.91
2018-01-23T08:12:10.696Z,3.87
2018-01-23T08:12:51.240Z,3.96
2018-01-23T08:13:31.832Z,3.96
2018-01-23T08:14:12.447Z,3.95
2018-01-23T08:14:53.027Z,3.88
2018-01-23T08:15:33.590Z,3.88
2018-01-23T08:16:14.146Z,3.98
2018-01-23T08:16:54.697Z,3.94
2018-01-23T08:17:35.278Z,3.94
2018-01-23T08:18:15.990Z,3.96
2018-01-23T08:18:56.557Z,3.92
2018-01-23T08:19:37.134Z,3.91
2018-01-23T08:20:17.710Z,3.96
2018-01-23T08:20:58.276Z,3.94
2018-01-23T08:21:38.835Z,4.05
2018-01-23T08:22:19.394Z,4.01
2018-01-23T08:22:59.952Z,3.94
2018-01-23T08:23:40.502Z,3.99
2018-01-23T08:24:21.061Z,4.01
2018-01-23T08:25:01.621Z,4.02
2018-01-23T08:25:42.197Z,3.98
2018-01-23T08:26:22.798Z,3.91
2018-01-23T08:27:03.357Z,3.92
2018-01-23T08:27:43.913Z,3.91
2018-01-23T08:28:24.562Z,3.88
2018-01-23T08:29:05.131Z,3.95
2018-01-23T08:29:45.711Z,3.83
2018-01-23T08:30:26.277Z,3.84
2018-01-23T08:31:06.829Z,3.86
2018-01-23T08:31:47.410Z,3.88
2018-01-23T08:32:27.969Z,3.8
2018-01-23T08:33:08.606Z,3.87
2018-01-23T08:33:49.171Z,3.86
2018-01-23T08:34:29.736Z,3.83
2018-01-23T08:35:10.301Z,3.81
2018-01-23T08:35:50.869Z,3.81
2018-01-23T08:36:31.433Z,3.84
2018-01-23T08:37:12.000Z,3.78
2018-01-23T08:37:52.596Z,3.8
2018-01-23T08:38:33.179Z,3.86
2018-01-23T08:39:13.747Z,3.78
2018-01-23T08:39:54.316Z,3.83
2018-01-23T08:40:34.875Z,3.83
2018-01-23T08:41:15.452Z,3.81
2018-01-23T08:41:56.014Z,3.84
2018-01-23T08:42:36.618Z,3.84
2018-01-23T08:43:17.169Z,3.81
2018-01-23T08:43:57.750Z,3.78
2018-01-23T08:44:38.326Z,3.81
2018-01-23T08:45:19.832Z,3.84
2018-01-23T08:46:09.521Z,3.83
2018-01-23T08:46:50.072Z,3.84
2018-01-23T08:47:30.634Z,3.73
2018-01-23T08:48:11.198Z,3.86
2018-01-23T08:48:51.749Z,3.86
2018-01-23T08:49:32.322Z,3.81
2018-01-23T08:50:12.902Z,3.86
2018-01-23T08:50:53.458Z,3.84
2018-01-23T08:51:34.022Z,3.78
2018-01-23T08:52:14.572Z,3.83
2018-01-23T08:52:55.126Z,3.84
2018-01-23T08:53:35.684Z,3.8
2018-01-23T08:54:16.273Z,3.83
2018-01-23T08:54:56.876Z,3.83
2018-01-23T08:55:37.439Z,3.78
2018-01-23T08:56:18.001Z,3.8
2018-01-23T08:56:58.564Z,3.8
2018-01-23T08:57:39.124Z,3.77
2018-01-23T08:58:19.705Z,3.81
2018-01-23T08:59:00.277Z,3.8
2018-01-23T08:59:40.875Z,3.76
2018-01-23T09:00:21.462Z,3.8
2018-01-23T09:01:02.109Z,3.76
2018-01-23T09:01:42.750Z,3.73
2018-01-23T09:02:23.320Z,3.78
2018-01-23T09:03:03.911Z,3.78
2018-01-23T09:03:44.477Z,3.76
2018-01-23T09:04:25.077Z,3.77